sensor_id;sensor_type;location;lat;lon;timestamp;temperature;humidity
35962;DHT22;22044;48.298;10.008;2023-03-11T00:00:17;2.60;99.90
35962;DHT22;22044;48.298;10.008;2023-03-11T00:03:05;2.60;99.90
35962;DHT22;22044;48.298;10.008;2023-03-11T00:05:52;2.50;99.90
35962;DHT22;22044;48.298;10.008;2023-03-11T00:08:39;2.50;99.90
35962;DHT22;22044;48.298;10.008;2023-03-11T00:11:24;2.50;99.90
35962;DHT22;22044;48.298;10.008;2023-03-11T00:14:12;2.50;99.90
35962;DHT22;22044;48.298;10.008;2023-03-11T00:16:57;2.40;99.90
35962;DHT22;22044;48.298;10.008;2023-03-11T00:19:43;2.40;99.90
35962;DHT22;22044;48.298;10.008;2023-03-11T00:22:28;2.30;99.90
35962;DHT22;22044;48.298;10.008;2023-03-11T00:25:14;2.30;99.90
35962;DHT22;22044;48.298;10.008;2023-03-11T00:28:00;2.30;99.90
35962;DHT22;22044;48.298;10.008;2023-03-11T00:30:47;2.20;99.90
35962;DHT22;22044;48.298;10.008;2023-03-11T00:33:33;2.20;99.90
35962;DHT22;22044;48.298;10.008;2023-03-11T00:36:22;2.20;99.90
35962;DHT22;22044;48.298;10.008;2023-03-11T00:39:08;2.30;99.90
35962;DHT22;22044;48.298;10.008;2023-03-11T00:41:54;2.30;99.90
35962;DHT22;22044;48.298;10.008;2023-03-11T00:44:41;2.20;99.90
35962;DHT22;22044;48.298;10.008;2023-03-11T00:47:27;2.10;99.90
35962;DHT22;22044;48.298;10.008;2023-03-11T00:50:14;2.10;99.90
35962;DHT22;22044;48.298;10.008;2023-03-11T00:53:02;2.00;99.90
35962;DHT22;22044;48.298;10.008;2023-03-11T00:55:47;1.90;99.90
35962;DHT22;22044;48.298;10.008;2023-03-11T00:58:33;1.90;99.90
35962;DHT22;22044;48.298;10.008;2023-03-11T01:01:19;1.90;99.90
35962;DHT22;22044;48.298;10.008;2023-03-11T01:04:07;1.80;99.90
35962;DHT22;22044;48.298;10.008;2023-03-11T01:06:52;1.80;99.90
35962;DHT22;22044;48.298;10.008;2023-03-11T01:09:38;1.80;99.90
35962;DHT22;22044;48.298;10.008;2023-03-11T01:12:25;1.70;99.90
35962;DHT22;22044;48.298;10.008;2023-03-11T01:15:17;1.80;99.90
35962;DHT22;22044;48.298;10.008;2023-03-11T01:18:04;1.70;99.90
35962;DHT22;22044;48.298;10.008;2023-03-11T01:20:52;1.70;99.90
35962;DHT22;22044;48.298;10.008;2023-03-11T01:23:38;1.60;99.90
35962;DHT22;22044;48.298;10.008;2023-03-11T01:26:23;1.60;99.90
35962;DHT22;22044;48.298;10.008;2023-03-11T01:29:13;1.60;99.90
35962;DHT22;22044;48.298;10.008;2023-03-11T01:31:59;1.60;99.90
35962;DHT22;22044;48.298;10.008;2023-03-11T01:34:44;1.70;99.90
35962;DHT22;22044;48.298;10.008;2023-03-11T01:37:31;1.60;99.90
35962;DHT22;22044;48.298;10.008;2023-03-11T01:40:20;1.50;99.90
35962;DHT22;22044;48.298;10.008;2023-03-11T01:43:37;1.60;99.90
35962;DHT22;22044;48.298;10.008;2023-03-11T01:46:29;1.60;99.90
35962;DHT22;22044;48.298;10.008;2023-03-11T01:49:15;1.70;99.90
35962;DHT22;22044;48.298;10.008;2023-03-11T01:52:03;1.60;99.90
35962;DHT22;22044;48.298;10.008;2023-03-11T01:54:56;1.60;99.90
35962;DHT22;22044;48.298;10.008;2023-03-11T01:57:43;1.60;99.90
35962;DHT22;22044;48.298;10.008;2023-03-11T02:00:30;1.60;99.90
35962;DHT22;22044;48.298;10.008;2023-03-11T02:03:18;1.60;99.90
35962;DHT22;22044;48.298;10.008;2023-03-11T02:06:08;1.60;99.90
35962;DHT22;22044;48.298;10.008;2023-03-11T02:08:54;1.50;99.90
35962;DHT22;22044;48.298;10.008;2023-03-11T02:11:41;1.50;99.90
35962;DHT22;22044;48.298;10.008;2023-03-11T02:14:28;1.60;99.90
35962;DHT22;22044;48.298;10.008;2023-03-11T02:17:15;1.60;99.90
35962;DHT22;22044;48.298;10.008;2023-03-11T02:20:13;1.60;99.90
35962;DHT22;22044;48.298;10.008;2023-03-11T02:23:01;1.60;99.90
35962;DHT22;22044;48.298;10.008;2023-03-11T02:25:51;1.60;99.90
35962;DHT22;22044;48.298;10.008;2023-03-11T02:28:41;1.50;99.90
35962;DHT22;22044;48.298;10.008;2023-03-11T02:31:27;1.50;99.90
35962;DHT22;22044;48.298;10.008;2023-03-11T02:34:20;1.50;99.90
35962;DHT22;22044;48.298;10.008;2023-03-11T02:37:09;1.50;99.90
35962;DHT22;22044;48.298;10.008;2023-03-11T02:43:29;1.40;99.90
35962;DHT22;22044;48.298;10.008;2023-03-11T02:46:20;1.40;99.90
35962;DHT22;22044;48.298;10.008;2023-03-11T02:49:06;1.50;99.90
35962;DHT22;22044;48.298;10.008;2023-03-11T02:51:52;1.50;99.90
35962;DHT22;22044;48.298;10.008;2023-03-11T02:54:38;1.40;99.90
35962;DHT22;22044;48.298;10.008;2023-03-11T02:57:23;1.40;99.90
35962;DHT22;22044;48.298;10.008;2023-03-11T03:00:10;1.40;99.90
35962;DHT22;22044;48.298;10.008;2023-03-11T03:03:03;1.40;99.90
35962;DHT22;22044;48.298;10.008;2023-03-11T03:05:49;1.40;99.90
35962;DHT22;22044;48.298;10.008;2023-03-11T03:08:35;1.40;99.90
35962;DHT22;22044;48.298;10.008;2023-03-11T03:11:21;1.40;99.90
35962;DHT22;22044;48.298;10.008;2023-03-11T03:14:07;1.40;99.90
35962;DHT22;22044;48.298;10.008;2023-03-11T03:16:52;1.40;99.90
35962;DHT22;22044;48.298;10.008;2023-03-11T03:19:39;1.40;99.90
35962;DHT22;22044;48.298;10.008;2023-03-11T03:22:25;1.40;99.90
35962;DHT22;22044;48.298;10.008;2023-03-11T03:25:13;1.30;99.90
35962;DHT22;22044;48.298;10.008;2023-03-11T03:27:58;1.30;99.90
35962;DHT22;22044;48.298;10.008;2023-03-11T03:30:45;1.20;99.90
35962;DHT22;22044;48.298;10.008;2023-03-11T03:33:32;1.40;99.90
35962;DHT22;22044;48.298;10.008;2023-03-11T03:36:20;1.30;99.90
35962;DHT22;22044;48.298;10.008;2023-03-11T03:39:12;1.30;99.90
35962;DHT22;22044;48.298;10.008;2023-03-11T03:41:57;1.40;99.90
35962;DHT22;22044;48.298;10.008;2023-03-11T03:44:45;1.40;99.90
35962;DHT22;22044;48.298;10.008;2023-03-11T03:47:32;1.40;99.90
35962;DHT22;22044;48.298;10.008;2023-03-11T03:50:18;1.30;99.90
35962;DHT22;22044;48.298;10.008;2023-03-11T03:53:07;1.30;99.90
35962;DHT22;22044;48.298;10.008;2023-03-11T03:55:53;1.30;99.90
35962;DHT22;22044;48.298;10.008;2023-03-11T03:58:39;1.40;99.90
35962;DHT22;22044;48.298;10.008;2023-03-11T04:01:25;1.40;99.90
35962;DHT22;22044;48.298;10.008;2023-03-11T04:04:13;1.40;99.90
35962;DHT22;22044;48.298;10.008;2023-03-11T04:06:59;1.40;99.90
35962;DHT22;22044;48.298;10.008;2023-03-11T04:09:46;1.40;99.90
35962;DHT22;22044;48.298;10.008;2023-03-11T04:12:32;1.40;99.90
35962;DHT22;22044;48.298;10.008;2023-03-11T04:15:18;1.30;99.90
35962;DHT22;22044;48.298;10.008;2023-03-11T04:18:05;1.30;99.90
35962;DHT22;22044;48.298;10.008;2023-03-11T04:20:51;1.20;99.90
35962;DHT22;22044;48.298;10.008;2023-03-11T04:23:37;1.10;99.90
35962;DHT22;22044;48.298;10.008;2023-03-11T04:26:26;1.10;99.90
35962;DHT22;22044;48.298;10.008;2023-03-11T04:29:12;1.00;99.90
35962;DHT22;22044;48.298;10.008;2023-03-11T04:32:02;1.00;99.90
35962;DHT22;22044;48.298;10.008;2023-03-11T04:34:49;1.00;99.90
35962;DHT22;22044;48.298;10.008;2023-03-11T04:37:35;1.00;99.90
35962;DHT22;22044;48.298;10.008;2023-03-11T04:40:21;1.00;99.90
35962;DHT22;22044;48.298;10.008;2023-03-11T04:43:08;0.90;99.90
35962;DHT22;22044;48.298;10.008;2023-03-11T04:45:53;0.90;99.90
35962;DHT22;22044;48.298;10.008;2023-03-11T04:48:39;0.80;99.90
35962;DHT22;22044;48.298;10.008;2023-03-11T04:51:25;0.80;99.90
35962;DHT22;22044;48.298;10.008;2023-03-11T04:54:11;0.70;99.90
35962;DHT22;22044;48.298;10.008;2023-03-11T04:56:58;0.70;99.90
35962;DHT22;22044;48.298;10.008;2023-03-11T04:59:45;0.70;99.90
35962;DHT22;22044;48.298;10.008;2023-03-11T05:02:32;0.50;99.90
35962;DHT22;22044;48.298;10.008;2023-03-11T05:05:19;0.50;99.90
35962;DHT22;22044;48.298;10.008;2023-03-11T05:08:05;0.50;99.90
35962;DHT22;22044;48.298;10.008;2023-03-11T05:10:52;0.40;99.90
35962;DHT22;22044;48.298;10.008;2023-03-11T05:13:39;0.40;99.90
35962;DHT22;22044;48.298;10.008;2023-03-11T05:16:26;0.30;99.90
35962;DHT22;22044;48.298;10.008;2023-03-11T05:19:12;0.40;99.90
35962;DHT22;22044;48.298;10.008;2023-03-11T05:22:21;0.30;99.90
35962;DHT22;22044;48.298;10.008;2023-03-11T05:25:08;0.20;99.90
35962;DHT22;22044;48.298;10.008;2023-03-11T05:27:55;0.20;99.90
35962;DHT22;22044;48.298;10.008;2023-03-11T05:30:41;0.20;99.90
35962;DHT22;22044;48.298;10.008;2023-03-11T05:33:28;0.20;99.90
35962;DHT22;22044;48.298;10.008;2023-03-11T05:36:19;0.20;99.90
35962;DHT22;22044;48.298;10.008;2023-03-11T05:39:05;0.10;99.90
35962;DHT22;22044;48.298;10.008;2023-03-11T05:41:52;0.00;99.90
35962;DHT22;22044;48.298;10.008;2023-03-11T05:44:40;0.00;99.90
35962;DHT22;22044;48.298;10.008;2023-03-11T05:47:26;0.00;99.90
35962;DHT22;22044;48.298;10.008;2023-03-11T05:50:14;-0.10;99.90
35962;DHT22;22044;48.298;10.008;2023-03-11T05:53:02;0.00;99.90
35962;DHT22;22044;48.298;10.008;2023-03-11T05:55:55;0.00;99.90
35962;DHT22;22044;48.298;10.008;2023-03-11T05:58:43;0.10;99.90
35962;DHT22;22044;48.298;10.008;2023-03-11T06:01:28;0.00;99.90
35962;DHT22;22044;48.298;10.008;2023-03-11T06:04:14;0.00;99.90
35962;DHT22;22044;48.298;10.008;2023-03-11T06:07:02;0.00;99.90
35962;DHT22;22044;48.298;10.008;2023-03-11T06:09:51;0.00;99.90
35962;DHT22;22044;48.298;10.008;2023-03-11T06:12:37;0.00;99.90
35962;DHT22;22044;48.298;10.008;2023-03-11T06:15:31;0.00;99.90
35962;DHT22;22044;48.298;10.008;2023-03-11T06:18:17;0.10;99.90
35962;DHT22;22044;48.298;10.008;2023-03-11T06:21:03;0.00;99.90
35962;DHT22;22044;48.298;10.008;2023-03-11T06:23:51;-0.20;99.90
35962;DHT22;22044;48.298;10.008;2023-03-11T06:26:38;0.00;99.90
35962;DHT22;22044;48.298;10.008;2023-03-11T06:29:24;0.00;99.90
35962;DHT22;22044;48.298;10.008;2023-03-11T06:32:11;0.10;99.90
35962;DHT22;22044;48.298;10.008;2023-03-11T06:34:57;0.20;99.90
35962;DHT22;22044;48.298;10.008;2023-03-11T06:37:43;0.20;99.90
35962;DHT22;22044;48.298;10.008;2023-03-11T06:40:30;0.30;99.90
35962;DHT22;22044;48.298;10.008;2023-03-11T06:43:16;0.20;99.90
35962;DHT22;22044;48.298;10.008;2023-03-11T06:46:08;0.30;99.90
35962;DHT22;22044;48.298;10.008;2023-03-11T06:48:54;0.30;99.90
35962;DHT22;22044;48.298;10.008;2023-03-11T06:51:41;0.10;99.90
35962;DHT22;22044;48.298;10.008;2023-03-11T06:54:28;0.10;99.90
35962;DHT22;22044;48.298;10.008;2023-03-11T06:57:16;0.00;99.90
35962;DHT22;22044;48.298;10.008;2023-03-11T07:00:04;0.10;99.90
35962;DHT22;22044;48.298;10.008;2023-03-11T07:02:54;0.20;99.90
35962;DHT22;22044;48.298;10.008;2023-03-11T07:05:41;0.10;99.90
35962;DHT22;22044;48.298;10.008;2023-03-11T07:08:29;0.20;99.90
35962;DHT22;22044;48.298;10.008;2023-03-11T07:11:17;0.10;99.90
35962;DHT22;22044;48.298;10.008;2023-03-11T07:14:04;0.10;99.90
35962;DHT22;22044;48.298;10.008;2023-03-11T07:16:53;0.20;99.90
35962;DHT22;22044;48.298;10.008;2023-03-11T07:19:54;0.30;99.90
35962;DHT22;22044;48.298;10.008;2023-03-11T07:22:40;0.40;99.90
35962;DHT22;22044;48.298;10.008;2023-03-11T07:25:26;0.70;99.90
35962;DHT22;22044;48.298;10.008;2023-03-11T07:28:11;0.70;99.90
35962;DHT22;22044;48.298;10.008;2023-03-11T07:30:58;0.70;99.90
35962;DHT22;22044;48.298;10.008;2023-03-11T07:33:44;0.70;99.90
35962;DHT22;22044;48.298;10.008;2023-03-11T07:36:30;0.70;99.90
35962;DHT22;22044;48.298;10.008;2023-03-11T07:39:17;0.60;99.90
35962;DHT22;22044;48.298;10.008;2023-03-11T07:42:03;0.70;99.90
35962;DHT22;22044;48.298;10.008;2023-03-11T07:44:53;0.80;99.90
35962;DHT22;22044;48.298;10.008;2023-03-11T07:47:40;0.80;99.90
35962;DHT22;22044;48.298;10.008;2023-03-11T07:50:26;0.80;99.90
35962;DHT22;22044;48.298;10.008;2023-03-11T07:53:11;0.80;99.90
35962;DHT22;22044;48.298;10.008;2023-03-11T07:55:57;0.90;99.90
35962;DHT22;22044;48.298;10.008;2023-03-11T07:58:43;1.00;99.90
35962;DHT22;22044;48.298;10.008;2023-03-11T08:01:31;1.00;99.90
35962;DHT22;22044;48.298;10.008;2023-03-11T08:04:21;1.00;99.90
35962;DHT22;22044;48.298;10.008;2023-03-11T08:07:06;1.20;99.90
35962;DHT22;22044;48.298;10.008;2023-03-11T08:09:51;1.30;99.90
35962;DHT22;22044;48.298;10.008;2023-03-11T08:12:38;1.30;99.90
35962;DHT22;22044;48.298;10.008;2023-03-11T08:15:24;1.40;99.90
35962;DHT22;22044;48.298;10.008;2023-03-11T08:18:10;1.50;99.90
35962;DHT22;22044;48.298;10.008;2023-03-11T08:20:57;1.70;99.90
35962;DHT22;22044;48.298;10.008;2023-03-11T08:23:43;1.70;99.90
35962;DHT22;22044;48.298;10.008;2023-03-11T08:26:30;1.90;99.90
35962;DHT22;22044;48.298;10.008;2023-03-11T08:29:16;1.90;99.90
35962;DHT22;22044;48.298;10.008;2023-03-11T08:32:02;1.90;99.90
35962;DHT22;22044;48.298;10.008;2023-03-11T08:34:48;2.00;99.90
35962;DHT22;22044;48.298;10.008;2023-03-11T08:37:35;2.20;99.90
35962;DHT22;22044;48.298;10.008;2023-03-11T08:40:20;2.30;99.90
35962;DHT22;22044;48.298;10.008;2023-03-11T08:43:06;2.50;99.90
35962;DHT22;22044;48.298;10.008;2023-03-11T08:45:52;2.80;99.90
35962;DHT22;22044;48.298;10.008;2023-03-11T08:48:38;3.00;99.90
35962;DHT22;22044;48.298;10.008;2023-03-11T08:51:24;3.20;99.90
35962;DHT22;22044;48.298;10.008;2023-03-11T08:54:12;3.10;99.90
35962;DHT22;22044;48.298;10.008;2023-03-11T08:56:59;3.10;99.90
35962;DHT22;22044;48.298;10.008;2023-03-11T08:59:46;2.50;99.90
35962;DHT22;22044;48.298;10.008;2023-03-11T09:02:32;2.20;99.90
35962;DHT22;22044;48.298;10.008;2023-03-11T09:05:18;2.60;99.90
35962;DHT22;22044;48.298;10.008;2023-03-11T09:08:03;3.10;99.90
35962;DHT22;22044;48.298;10.008;2023-03-11T09:10:50;3.40;99.90
35962;DHT22;22044;48.298;10.008;2023-03-11T09:13:37;3.90;99.90
35962;DHT22;22044;48.298;10.008;2023-03-11T09:16:24;4.00;99.90
35962;DHT22;22044;48.298;10.008;2023-03-11T09:19:09;4.00;99.90
35962;DHT22;22044;48.298;10.008;2023-03-11T09:21:55;3.80;99.90
35962;DHT22;22044;48.298;10.008;2023-03-11T09:24:41;3.30;99.90
35962;DHT22;22044;48.298;10.008;2023-03-11T09:27:29;3.10;99.90
35962;DHT22;22044;48.298;10.008;2023-03-11T09:30:15;3.20;99.90
35962;DHT22;22044;48.298;10.008;2023-03-11T09:33:01;3.30;99.90
35962;DHT22;22044;48.298;10.008;2023-03-11T09:35:46;3.80;99.90
35962;DHT22;22044;48.298;10.008;2023-03-11T09:38:31;4.00;99.90
35962;DHT22;22044;48.298;10.008;2023-03-11T09:41:24;4.30;99.90
35962;DHT22;22044;48.298;10.008;2023-03-11T09:44:17;3.70;99.90
35962;DHT22;22044;48.298;10.008;2023-03-11T09:47:22;4.00;99.90
35962;DHT22;22044;48.298;10.008;2023-03-11T09:50:21;4.30;99.90
35962;DHT22;22044;48.298;10.008;2023-03-11T09:53:21;4.20;99.90
35962;DHT22;22044;48.298;10.008;2023-03-11T09:56:10;4.40;99.90
35962;DHT22;22044;48.298;10.008;2023-03-11T09:59:00;4.50;99.90
35962;DHT22;22044;48.298;10.008;2023-03-11T10:01:49;4.20;99.90
35962;DHT22;22044;48.298;10.008;2023-03-11T10:04:40;4.00;99.90
35962;DHT22;22044;48.298;10.008;2023-03-11T10:07:31;4.20;99.90
35962;DHT22;22044;48.298;10.008;2023-03-11T10:10:18;4.10;99.90
35962;DHT22;22044;48.298;10.008;2023-03-11T10:13:08;4.00;99.90
35962;DHT22;22044;48.298;10.008;2023-03-11T10:16:03;3.90;99.90
35962;DHT22;22044;48.298;10.008;2023-03-11T10:18:59;3.70;99.90
35962;DHT22;22044;48.298;10.008;2023-03-11T10:21:57;3.40;99.90
35962;DHT22;22044;48.298;10.008;2023-03-11T10:25:02;3.20;99.90
35962;DHT22;22044;48.298;10.008;2023-03-11T10:27:53;2.90;99.90
35962;DHT22;22044;48.298;10.008;2023-03-11T10:30:42;3.00;99.90
35962;DHT22;22044;48.298;10.008;2023-03-11T10:33:34;3.10;99.90
35962;DHT22;22044;48.298;10.008;2023-03-11T10:36:26;3.10;99.90
35962;DHT22;22044;48.298;10.008;2023-03-11T10:39:14;3.10;99.90
35962;DHT22;22044;48.298;10.008;2023-03-11T10:42:02;3.40;99.90
35962;DHT22;22044;48.298;10.008;2023-03-11T10:44:48;3.90;99.90
35962;DHT22;22044;48.298;10.008;2023-03-11T10:47:33;4.10;99.90
35962;DHT22;22044;48.298;10.008;2023-03-11T10:50:19;4.00;99.90
35962;DHT22;22044;48.298;10.008;2023-03-11T10:53:08;4.10;99.90
35962;DHT22;22044;48.298;10.008;2023-03-11T10:55:56;4.20;99.90
35962;DHT22;22044;48.298;10.008;2023-03-11T10:58:47;4.60;99.90
35962;DHT22;22044;48.298;10.008;2023-03-11T11:01:33;4.50;99.90
35962;DHT22;22044;48.298;10.008;2023-03-11T11:04:27;4.60;99.90
35962;DHT22;22044;48.298;10.008;2023-03-11T11:07:28;4.80;99.90
35962;DHT22;22044;48.298;10.008;2023-03-11T11:10:17;4.90;99.90
35962;DHT22;22044;48.298;10.008;2023-03-11T11:13:17;4.70;99.90
35962;DHT22;22044;48.298;10.008;2023-03-11T11:16:04;4.80;99.90
35962;DHT22;22044;48.298;10.008;2023-03-11T11:18:55;4.20;99.90
35962;DHT22;22044;48.298;10.008;2023-03-11T11:21:46;4.60;99.90
35962;DHT22;22044;48.298;10.008;2023-03-11T11:24:33;4.80;99.90
35962;DHT22;22044;48.298;10.008;2023-03-11T11:27:22;5.00;99.90
35962;DHT22;22044;48.298;10.008;2023-03-11T11:30:15;5.10;99.90
35962;DHT22;22044;48.298;10.008;2023-03-11T11:33:21;5.20;99.90
35962;DHT22;22044;48.298;10.008;2023-03-11T11:36:13;5.00;99.90
35962;DHT22;22044;48.298;10.008;2023-03-11T11:39:00;4.70;99.90
35962;DHT22;22044;48.298;10.008;2023-03-11T11:41:48;4.60;99.90
35962;DHT22;22044;48.298;10.008;2023-03-11T11:44:36;4.20;99.90
35962;DHT22;22044;48.298;10.008;2023-03-11T11:47:25;4.30;99.90
35962;DHT22;22044;48.298;10.008;2023-03-11T11:50:17;4.90;99.90
35962;DHT22;22044;48.298;10.008;2023-03-11T11:53:13;5.00;99.90
35962;DHT22;22044;48.298;10.008;2023-03-11T11:56:00;5.20;99.90
35962;DHT22;22044;48.298;10.008;2023-03-11T11:58:46;4.50;99.90
35962;DHT22;22044;48.298;10.008;2023-03-11T12:01:38;5.00;99.90
35962;DHT22;22044;48.298;10.008;2023-03-11T12:04:50;4.40;99.90
35962;DHT22;22044;48.298;10.008;2023-03-11T12:07:50;4.80;99.90
35962;DHT22;22044;48.298;10.008;2023-03-11T12:10:41;4.90;99.90
35962;DHT22;22044;48.298;10.008;2023-03-11T12:13:47;5.10;99.90
35962;DHT22;22044;48.298;10.008;2023-03-11T12:16:41;5.20;99.90
35962;DHT22;22044;48.298;10.008;2023-03-11T12:19:35;4.90;99.90
35962;DHT22;22044;48.298;10.008;2023-03-11T12:22:58;4.90;99.90
35962;DHT22;22044;48.298;10.008;2023-03-11T12:26:06;5.00;99.90
35962;DHT22;22044;48.298;10.008;2023-03-11T12:28:58;5.20;99.90
35962;DHT22;22044;48.298;10.008;2023-03-11T12:31:47;5.30;99.90
35962;DHT22;22044;48.298;10.008;2023-03-11T12:34:34;5.10;99.90
35962;DHT22;22044;48.298;10.008;2023-03-11T12:37:22;5.20;99.90
35962;DHT22;22044;48.298;10.008;2023-03-11T12:40:41;5.10;99.90
35962;DHT22;22044;48.298;10.008;2023-03-11T12:50:45;5.90;99.90
35962;DHT22;22044;48.298;10.008;2023-03-11T12:53:41;5.90;99.90
35962;DHT22;22044;48.298;10.008;2023-03-11T12:56:31;5.80;99.90
35962;DHT22;22044;48.298;10.008;2023-03-11T13:06:10;5.20;99.90
35962;DHT22;22044;48.298;10.008;2023-03-11T13:08:59;5.10;99.90
35962;DHT22;22044;48.298;10.008;2023-03-11T13:11:46;4.80;99.90
35962;DHT22;22044;48.298;10.008;2023-03-11T13:14:32;4.90;99.90
35962;DHT22;22044;48.298;10.008;2023-03-11T13:17:23;5.10;99.90
35962;DHT22;22044;48.298;10.008;2023-03-11T13:20:40;5.20;99.90
35962;DHT22;22044;48.298;10.008;2023-03-11T13:23:31;5.40;99.90
35962;DHT22;22044;48.298;10.008;2023-03-11T13:26:38;5.60;99.90
35962;DHT22;22044;48.298;10.008;2023-03-11T13:29:43;5.60;99.90
35962;DHT22;22044;48.298;10.008;2023-03-11T13:35:58;5.70;99.90
35962;DHT22;22044;48.298;10.008;2023-03-11T13:39:16;5.80;99.90
35962;DHT22;22044;48.298;10.008;2023-03-11T13:42:14;5.80;99.90
35962;DHT22;22044;48.298;10.008;2023-03-11T13:45:02;5.80;99.90
35962;DHT22;22044;48.298;10.008;2023-03-11T13:47:49;5.90;99.90
35962;DHT22;22044;48.298;10.008;2023-03-11T13:50:39;6.00;99.90
35962;DHT22;22044;48.298;10.008;2023-03-11T13:53:30;6.00;99.90
35962;DHT22;22044;48.298;10.008;2023-03-11T13:56:23;6.10;99.90
35962;DHT22;22044;48.298;10.008;2023-03-11T13:59:19;5.80;99.90
35962;DHT22;22044;48.298;10.008;2023-03-11T14:02:16;5.80;99.90
35962;DHT22;22044;48.298;10.008;2023-03-11T14:05:05;5.80;99.90
35962;DHT22;22044;48.298;10.008;2023-03-11T14:07:51;5.50;99.90
35962;DHT22;22044;48.298;10.008;2023-03-11T14:10:38;5.70;99.90
35962;DHT22;22044;48.298;10.008;2023-03-11T14:13:26;5.80;99.90
35962;DHT22;22044;48.298;10.008;2023-03-11T14:16:14;5.90;99.90
35962;DHT22;22044;48.298;10.008;2023-03-11T14:19:02;6.00;99.90
35962;DHT22;22044;48.298;10.008;2023-03-11T14:21:51;6.10;99.90
35962;DHT22;22044;48.298;10.008;2023-03-11T14:24:38;6.20;99.90
35962;DHT22;22044;48.298;10.008;2023-03-11T14:27:24;6.10;99.90
35962;DHT22;22044;48.298;10.008;2023-03-11T14:30:20;6.20;99.90
35962;DHT22;22044;48.298;10.008;2023-03-11T14:33:17;6.30;99.90
35962;DHT22;22044;48.298;10.008;2023-03-11T14:36:09;6.30;99.90
35962;DHT22;22044;48.298;10.008;2023-03-11T14:38:56;6.20;99.90
35962;DHT22;22044;48.298;10.008;2023-03-11T14:41:42;6.00;99.90
35962;DHT22;22044;48.298;10.008;2023-03-11T14:44:29;6.10;99.90
35962;DHT22;22044;48.298;10.008;2023-03-11T14:47:21;6.10;99.90
35962;DHT22;22044;48.298;10.008;2023-03-11T14:50:13;6.20;99.90
35962;DHT22;22044;48.298;10.008;2023-03-11T14:53:02;6.30;99.90
35962;DHT22;22044;48.298;10.008;2023-03-11T14:55:50;6.40;99.90
35962;DHT22;22044;48.298;10.008;2023-03-11T14:58:39;6.20;99.90
35962;DHT22;22044;48.298;10.008;2023-03-11T15:01:28;6.20;99.90
35962;DHT22;22044;48.298;10.008;2023-03-11T15:04:22;6.30;99.90
35962;DHT22;22044;48.298;10.008;2023-03-11T15:07:12;5.60;99.90
35962;DHT22;22044;48.298;10.008;2023-03-11T15:09:57;5.60;99.90
35962;DHT22;22044;48.298;10.008;2023-03-11T15:12:43;6.00;99.90
35962;DHT22;22044;48.298;10.008;2023-03-11T15:15:29;5.30;99.90
35962;DHT22;22044;48.298;10.008;2023-03-11T15:18:21;5.30;99.90
35962;DHT22;22044;48.298;10.008;2023-03-11T15:21:13;5.30;99.90
35962;DHT22;22044;48.298;10.008;2023-03-11T15:24:00;5.60;99.90
35962;DHT22;22044;48.298;10.008;2023-03-11T15:26:53;5.80;99.90
35962;DHT22;22044;48.298;10.008;2023-03-11T15:29:49;5.90;99.90
35962;DHT22;22044;48.298;10.008;2023-03-11T15:32:39;5.50;99.90
35962;DHT22;22044;48.298;10.008;2023-03-11T15:35:26;5.20;99.90
35962;DHT22;22044;48.298;10.008;2023-03-11T15:38:19;5.50;99.90
35962;DHT22;22044;48.298;10.008;2023-03-11T15:41:09;5.70;99.90
35962;DHT22;22044;48.298;10.008;2023-03-11T15:43:55;5.60;99.90
35962;DHT22;22044;48.298;10.008;2023-03-11T15:46:45;5.80;99.90
35962;DHT22;22044;48.298;10.008;2023-03-11T15:49:30;5.80;99.90
35962;DHT22;22044;48.298;10.008;2023-03-11T15:52:16;5.90;99.90
35962;DHT22;22044;48.298;10.008;2023-03-11T15:55:05;5.80;99.90
35962;DHT22;22044;48.298;10.008;2023-03-11T15:57:57;5.90;99.90
35962;DHT22;22044;48.298;10.008;2023-03-11T16:00:46;5.90;99.90
35962;DHT22;22044;48.298;10.008;2023-03-11T16:03:32;5.90;99.90
35962;DHT22;22044;48.298;10.008;2023-03-11T16:06:18;5.90;99.90
35962;DHT22;22044;48.298;10.008;2023-03-11T16:09:06;5.90;99.90
35962;DHT22;22044;48.298;10.008;2023-03-11T16:11:53;5.80;99.90
35962;DHT22;22044;48.298;10.008;2023-03-11T16:14:38;5.70;99.90
35962;DHT22;22044;48.298;10.008;2023-03-11T16:17:25;5.60;99.90
35962;DHT22;22044;48.298;10.008;2023-03-11T16:20:11;5.50;99.90
35962;DHT22;22044;48.298;10.008;2023-03-11T16:22:57;5.50;99.90
35962;DHT22;22044;48.298;10.008;2023-03-11T16:25:45;5.40;99.90
35962;DHT22;22044;48.298;10.008;2023-03-11T16:28:33;5.30;99.90
35962;DHT22;22044;48.298;10.008;2023-03-11T16:31:19;5.10;99.90
35962;DHT22;22044;48.298;10.008;2023-03-11T16:34:04;5.00;99.90
35962;DHT22;22044;48.298;10.008;2023-03-11T16:36:50;4.80;99.90
35962;DHT22;22044;48.298;10.008;2023-03-11T16:39:36;4.80;99.90
35962;DHT22;22044;48.298;10.008;2023-03-11T16:42:22;4.70;99.90
35962;DHT22;22044;48.298;10.008;2023-03-11T16:45:10;4.60;99.90
35962;DHT22;22044;48.298;10.008;2023-03-11T16:47:55;4.60;99.90
35962;DHT22;22044;48.298;10.008;2023-03-11T16:50:41;4.50;99.90
35962;DHT22;22044;48.298;10.008;2023-03-11T16:53:27;4.40;99.90
35962;DHT22;22044;48.298;10.008;2023-03-11T16:56:12;4.40;99.90
35962;DHT22;22044;48.298;10.008;2023-03-11T16:58:58;4.40;99.90
35962;DHT22;22044;48.298;10.008;2023-03-11T17:01:46;4.30;99.90
35962;DHT22;22044;48.298;10.008;2023-03-11T17:04:31;4.20;99.90
35962;DHT22;22044;48.298;10.008;2023-03-11T17:07:18;4.20;99.90
35962;DHT22;22044;48.298;10.008;2023-03-11T17:10:08;4.10;99.90
35962;DHT22;22044;48.298;10.008;2023-03-11T17:12:54;4.10;99.90
35962;DHT22;22044;48.298;10.008;2023-03-11T17:15:40;4.00;99.90
35962;DHT22;22044;48.298;10.008;2023-03-11T17:18:29;3.90;99.90
35962;DHT22;22044;48.298;10.008;2023-03-11T17:21:15;4.00;99.90
35962;DHT22;22044;48.298;10.008;2023-03-11T17:24:01;4.10;99.90
35962;DHT22;22044;48.298;10.008;2023-03-11T17:26:47;3.90;99.90
35962;DHT22;22044;48.298;10.008;2023-03-11T17:29:33;3.90;99.90
35962;DHT22;22044;48.298;10.008;2023-03-11T17:32:18;3.90;99.90
35962;DHT22;22044;48.298;10.008;2023-03-11T17:35:07;3.90;99.90
35962;DHT22;22044;48.298;10.008;2023-03-11T17:37:53;3.80;99.90
35962;DHT22;22044;48.298;10.008;2023-03-11T17:40:38;3.70;99.90
35962;DHT22;22044;48.298;10.008;2023-03-11T17:43:24;3.70;99.90
35962;DHT22;22044;48.298;10.008;2023-03-11T17:46:11;3.70;99.90
35962;DHT22;22044;48.298;10.008;2023-03-11T17:48:58;3.80;99.90
35962;DHT22;22044;48.298;10.008;2023-03-11T17:51:45;3.90;99.90
35962;DHT22;22044;48.298;10.008;2023-03-11T17:54:30;3.90;99.90
35962;DHT22;22044;48.298;10.008;2023-03-11T17:57:16;3.80;99.90
35962;DHT22;22044;48.298;10.008;2023-03-11T18:00:02;3.80;99.90
35962;DHT22;22044;48.298;10.008;2023-03-11T18:02:50;3.80;99.90
35962;DHT22;22044;48.298;10.008;2023-03-11T18:05:36;3.80;99.90